createdAt,value
2018-08-20T00:00:48.933Z,98.96
2018-08-20T00:01:48.826Z,98.77
2018-08-20T00:02:48.738Z,98.00
2018-08-20T00:03:48.646Z,98.19
2018-08-20T00:04:48.574Z,97.76
2018-08-20T00:05:48.485Z,98.63
2018-08-20T00:06:48.384Z,97.66
2018-08-20T00:07:48.294Z,98.34
2018-08-20T00:08:48.205Z,97.47
2018-08-20T00:09:48.116Z,97.19
2018-08-20T00:10:48.043Z,97.71
2018-08-20T00:11:47.935Z,96.89
2018-08-20T00:12:47.847Z,98.19
2018-08-20T00:13:47.761Z,98.53
2018-08-20T00:14:47.670Z,98.63
2018-08-20T00:15:47.599Z,97.76
2018-08-20T00:16:47.488Z,98.34
2018-08-20T00:17:47.400Z,98.34
2018-08-20T00:18:47.312Z,99.05
2018-08-20T00:19:47.224Z,99.99
2018-08-20T00:20:47.153Z,99.99
2018-08-20T00:21:47.045Z,99.99
2018-08-20T00:22:46.956Z,99.99
2018-08-20T00:23:46.867Z,99.99
2018-08-20T00:24:46.777Z,99.99
2018-08-20T00:25:46.722Z,99.99
2018-08-20T00:26:46.599Z,99.99
2018-08-20T00:27:46.508Z,99.99
2018-08-20T00:28:46.418Z,99.99
2018-08-20T00:29:46.332Z,99.99
2018-08-20T00:30:46.261Z,99.99
2018-08-20T00:31:46.152Z,99.99
2018-08-20T00:32:46.067Z,99.99
2018-08-20T00:33:45.976Z,99.99
2018-08-20T00:34:45.883Z,99.99
2018-08-20T00:35:45.809Z,99.99
2018-08-20T00:36:45.703Z,99.99
2018-08-20T00:37:45.620Z,99.99
2018-08-20T00:38:45.528Z,99.99
2018-08-20T00:39:45.439Z,99.99
2018-08-20T00:40:45.361Z,99.99
2018-08-20T00:41:45.257Z,99.99
2018-08-20T00:42:45.168Z,99.99
2018-08-20T00:43:45.081Z,99.99
2018-08-20T00:44:44.989Z,98.96
2018-08-20T00:45:44.917Z,99.34
2018-08-20T00:46:44.824Z,99.25
2018-08-20T00:47:44.720Z,99.99
2018-08-20T00:48:44.631Z,99.99
2018-08-20T00:49:44.547Z,99.99
2018-08-20T00:50:44.464Z,99.99
2018-08-20T00:51:44.362Z,99.99
2018-08-20T00:52:44.273Z,99.99
2018-08-20T00:53:44.186Z,99.99
2018-08-20T00:54:44.118Z,99.99
2018-08-20T00:55:44.005Z,99.99
2018-08-20T00:56:43.932Z,99.99
2018-08-20T00:57:43.824Z,99.99
2018-08-20T00:58:43.736Z,99.99
2018-08-20T00:59:43.649Z,99.99
2018-08-20T01:00:43.572Z,99.99
2018-08-20T01:01:43.469Z,99.99
2018-08-20T01:02:43.375Z,99.99
2018-08-20T01:03:43.290Z,99.99
2018-08-20T01:04:43.199Z,99.99
2018-08-20T01:05:43.114Z,99.99
2018-08-20T01:06:43.033Z,99.99
2018-08-20T01:07:42.931Z,99.99
2018-08-20T01:08:42.837Z,99.99
2018-08-20T01:09:42.850Z,99.99
2018-08-20T01:10:42.659Z,99.99
2018-08-20T01:11:42.589Z,99.99
2018-08-20T01:12:42.481Z,99.99
2018-08-20T01:13:42.393Z,99.99
2018-08-20T01:14:42.301Z,99.99
2018-08-20T01:15:42.212Z,99.99
2018-08-20T01:16:42.249Z,99.99
2018-08-20T01:17:42.033Z,99.99
2018-08-20T01:18:41.943Z,99.99
2018-08-20T01:19:41.853Z,99.99
2018-08-20T01:20:41.764Z,99.99
2018-08-20T01:21:41.691Z,99.99
2018-08-20T01:22:41.581Z,99.99
2018-08-20T01:23:41.598Z,99.99
2018-08-20T01:24:41.403Z,99.99
2018-08-20T01:25:41.314Z,99.99
2018-08-20T01:26:41.238Z,99.99
2018-08-20T01:27:41.136Z,99.99
2018-08-20T01:28:41.043Z,99.99
2018-08-20T01:29:40.955Z,99.99
2018-08-20T01:30:40.962Z,99.99
2018-08-20T01:31:40.789Z,99.99
2018-08-20T01:32:40.684Z,99.99
2018-08-20T01:33:40.594Z,99.99
2018-08-20T01:34:40.504Z,99.99
2018-08-20T01:35:40.414Z,99.99
2018-08-20T01:36:40.346Z,99.99
2018-08-20T01:37:40.338Z,99.99
2018-08-20T01:38:40.144Z,99.99
2018-08-20T01:39:40.054Z,99.99
2018-08-20T01:40:39.966Z,99.99
2018-08-20T01:41:39.891Z,99.99
2018-08-20T01:42:39.783Z,99.99
2018-08-20T01:43:39.696Z,99.99
2018-08-20T01:44:39.708Z,99.99
2018-08-20T01:45:39.520Z,99.99
2018-08-20T01:46:39.441Z,99.99
2018-08-20T01:47:39.338Z,99.99
2018-08-20T01:48:39.244Z,99.99
2018-08-20T01:49:39.155Z,99.99
2018-08-20T01:50:39.068Z,99.99
2018-08-20T01:51:39.093Z,99.99
2018-08-20T01:52:38.884Z,99.99
2018-08-20T01:53:38.795Z,99.99
2018-08-20T01:54:38.713Z,99.99
2018-08-20T01:55:38.615Z,99.99
2018-08-20T01:56:38.539Z,99.99
2018-08-20T01:57:38.433Z,99.99
2018-08-20T01:58:38.444Z,99.99
2018-08-20T01:59:38.253Z,99.99
2018-08-20T02:00:38.166Z,99.99
2018-08-20T02:01:38.092Z,99.99
2018-08-20T02:02:37.985Z,99.99
2018-08-20T02:03:37.893Z,99.99
2018-08-20T02:04:37.805Z,99.99
2018-08-20T02:05:37.813Z,99.99
2018-08-20T02:06:37.642Z,99.99
2018-08-20T02:07:37.538Z,99.99
2018-08-20T02:08:37.445Z,99.99
2018-08-20T02:09:37.354Z,99.99
2018-08-20T02:10:37.264Z,99.99
2018-08-20T02:11:37.191Z,99.99
2018-08-20T02:12:37.198Z,99.99
2018-08-20T02:13:37.000Z,99.99
2018-08-20T02:14:36.906Z,99.99
2018-08-20T02:15:36.814Z,99.99
2018-08-20T02:16:36.742Z,99.99
2018-08-20T02:17:36.634Z,99.99
2018-08-20T02:18:36.542Z,99.99
2018-08-20T02:19:36.453Z,99.99
2018-08-20T02:20:36.365Z,99.99
2018-08-20T02:21:36.292Z,99.99
2018-08-20T02:22:36.189Z,99.99
2018-08-20T02:23:36.092Z,99.99
2018-08-20T02:24:36.003Z,99.99
2018-08-20T02:25:35.913Z,99.99
2018-08-20T02:26:35.938Z,99.99
2018-08-20T02:27:35.732Z,99.99
2018-08-20T02:28:35.643Z,99.99
2018-08-20T02:29:35.555Z,99.99
2018-08-20T02:30:35.473Z,99.99
2018-08-20T02:31:35.391Z,99.99
2018-08-20T02:32:35.422Z,99.99
2018-08-20T02:33:35.195Z,99.99
2018-08-20T02:34:35.102Z,99.99
2018-08-20T02:35:35.012Z,99.99
2018-08-20T02:36:34.940Z,99.99
2018-08-20T02:37:34.836Z,99.99
2018-08-20T02:38:34.742Z,99.99
2018-08-20T02:39:34.653Z,99.99
2018-08-20T02:40:34.561Z,99.99
2018-08-20T02:41:34.488Z,99.99
2018-08-20T02:42:34.385Z,99.99
2018-08-20T02:43:34.293Z,99.99
2018-08-20T02:44:34.199Z,99.99
2018-08-20T02:45:34.113Z,99.99
2018-08-20T02:46:34.035Z,99.99
2018-08-20T02:47:33.933Z,99.99
2018-08-20T02:48:33.842Z,99.99
2018-08-20T02:49:33.751Z,99.99
2018-08-20T02:50:33.660Z,99.99
2018-08-20T02:51:33.576Z,99.99
2018-08-20T02:52:33.502Z,99.99
2018-08-20T02:53:33.391Z,99.99
2018-08-20T02:54:33.304Z,99.99
2018-08-20T02:55:33.210Z,99.99
2018-08-20T02:56:33.126Z,99.99
2018-08-20T02:57:33.048Z,99.99
2018-08-20T02:58:32.940Z,99.99
2018-08-20T02:59:32.851Z,99.99
2018-08-20T03:00:32.759Z,99.99
2018-08-20T03:01:32.676Z,99.99
2018-08-20T03:02:32.595Z,99.99
2018-08-20T03:03:32.513Z,99.99
2018-08-20T03:04:32.401Z,99.99
2018-08-20T03:05:32.312Z,99.99
2018-08-20T03:06:32.221Z,99.99
2018-08-20T03:07:32.144Z,99.99
2018-08-20T03:08:32.038Z,99.99
2018-08-20T03:09:31.948Z,99.99
2018-08-20T03:10:31.857Z,99.99
2018-08-20T03:11:31.774Z,99.99
2018-08-20T03:12:31.696Z,99.99
2018-08-20T03:13:31.588Z,99.99
2018-08-20T03:14:31.496Z,99.99
2018-08-20T03:15:31.718Z,99.99
2018-08-20T03:16:31.371Z,99.99
2018-08-20T03:17:31.354Z,99.99
2018-08-20T03:18:31.137Z,99.99
2018-08-20T03:19:31.045Z,99.99
2018-08-20T03:20:30.957Z,99.99
2018-08-20T03:21:30.864Z,99.99
2018-08-20T03:22:30.788Z,99.99
2018-08-20T03:23:30.685Z,99.99
2018-08-20T03:24:30.594Z,99.99
2018-08-20T03:25:30.506Z,99.99
2018-08-20T03:26:30.417Z,99.99
2018-08-20T03:27:30.339Z,99.99
2018-08-20T03:28:30.234Z,99.99
2018-08-20T03:29:30.143Z,99.99
2018-08-20T03:30:30.056Z,99.99
2018-08-20T03:31:29.961Z,99.99
2018-08-20T03:32:29.889Z,99.99
2018-08-20T03:33:29.792Z,99.99
2018-08-20T03:34:29.705Z,99.99
2018-08-20T03:35:29.601Z,99.99
2018-08-20T03:36:29.510Z,99.99
2018-08-20T03:37:29.434Z,99.99
2018-08-20T03:38:29.326Z,99.99
2018-08-20T03:39:29.244Z,99.99
2018-08-20T03:40:29.148Z,99.99
2018-08-20T03:41:29.057Z,99.99
2018-08-20T03:42:28.983Z,99.99
2018-08-20T03:43:28.875Z,99.99
2018-08-20T03:44:28.788Z,99.99
2018-08-20T03:45:28.696Z,99.99
2018-08-20T03:46:28.608Z,99.99
2018-08-20T03:47:28.529Z,99.99
2018-08-20T03:48:28.423Z,99.99
2018-08-20T03:49:28.333Z,99.99
2018-08-20T03:50:28.248Z,99.99
2018-08-20T03:51:28.153Z,99.99
2018-08-20T03:52:28.079Z,99.99
2018-08-20T03:53:27.972Z,99.99
2018-08-20T03:54:27.883Z,99.99
2018-08-20T03:55:27.801Z,99.99
2018-08-20T03:56:27.712Z,99.99
2018-08-20T03:57:27.626Z,99.99
2018-08-20T03:58:27.522Z,99.99
2018-08-20T03:59:27.428Z,99.99
2018-08-20T04:00:27.339Z,99.99
2018-08-20T04:01:27.251Z,99.99
2018-08-20T04:02:27.174Z,99.99
2018-08-20T04:03:27.065Z,99.99
2018-08-20T04:04:26.978Z,99.99
2018-08-20T04:05:26.886Z,99.99
2018-08-20T04:06:26.796Z,99.99
2018-08-20T04:07:26.723Z,99.99
2018-08-20T04:08:26.615Z,99.99
2018-08-20T04:09:26.525Z,99.99
2018-08-20T04:10:26.432Z,99.99
2018-08-20T04:11:26.446Z,99.99
2018-08-20T04:12:26.271Z,99.99
2018-08-20T04:13:26.166Z,99.99
2018-08-20T04:14:26.074Z,99.99
2018-08-20T04:15:25.981Z,99.99
2018-08-20T04:16:25.889Z,99.99
2018-08-20T04:17:25.815Z,99.99
2018-08-20T04:18:25.812Z,99.99
2018-08-20T04:19:25.617Z,99.99
2018-08-20T04:20:25.527Z,99.99
2018-08-20T04:21:25.437Z,99.99
2018-08-20T04:22:25.362Z,99.99
2018-08-20T04:23:25.257Z,99.99
2018-08-20T04:24:25.166Z,99.99
2018-08-20T04:25:25.172Z,99.99
2018-08-20T04:26:24.984Z,99.99
2018-08-20T04:27:24.910Z,99.99
2018-08-20T04:28:24.801Z,99.99
2018-08-20T04:29:24.711Z,99.99
2018-08-20T04:30:24.622Z,99.99
2018-08-20T04:31:24.529Z,99.99
2018-08-20T04:32:24.556Z,99.99
2018-08-20T04:33:24.356Z,99.99
2018-08-20T04:34:24.257Z,99.99
2018-08-20T04:35:24.168Z,99.99
2018-08-20T04:36:24.082Z,99.99
2018-08-20T04:37:23.990Z,99.99
2018-08-20T04:38:23.911Z,99.99
2018-08-20T04:39:23.904Z,99.99
2018-08-20T04:40:23.716Z,99.99
2018-08-20T04:41:23.624Z,99.99
2018-08-20T04:42:23.535Z,99.99
2018-08-20T04:43:23.458Z,99.99
2018-08-20T04:44:23.356Z,99.99
2018-08-20T04:45:23.269Z,99.99
2018-08-20T04:46:23.268Z,99.99
2018-08-20T04:47:23.082Z,99.99
2018-08-20T04:48:23.007Z,99.99
2018-08-20T04:49:22.900Z,99.99
2018-08-20T04:50:23.036Z,99.99
2018-08-20T04:51:22.847Z,99.99
2018-08-20T04:52:22.629Z,99.99
2018-08-20T04:53:22.654Z,99.99
2018-08-20T04:54:22.448Z,99.99
2018-08-20T04:55:22.355Z,99.99
2018-08-20T04:56:22.265Z,99.99
2018-08-20T04:57:22.178Z,99.99
2018-08-20T04:58:22.100Z,99.99
2018-08-20T04:59:21.993Z,99.99
2018-08-20T05:00:22.000Z,99.99
2018-08-20T05:01:21.813Z,99.99
2018-08-20T05:02:21.723Z,99.99
2018-08-20T05:03:21.652Z,99.99
2018-08-20T05:04:21.546Z,99.99
2018-08-20T05:05:21.450Z,99.99
2018-08-20T05:06:21.359Z,99.99
2018-08-20T05:07:21.374Z,99.99
2018-08-20T05:08:21.199Z,99.99
2018-08-20T05:09:21.093Z,99.99
2018-08-20T05:10:20.997Z,99.99
2018-08-20T05:11:20.912Z,99.99
2018-08-20T05:12:20.818Z,99.99
2018-08-20T05:13:20.743Z,99.99
2018-08-20T05:14:20.734Z,99.99
2018-08-20T05:15:20.547Z,99.99
2018-08-20T05:16:20.455Z,99.99
2018-08-20T05:17:20.366Z,99.99
2018-08-20T05:18:20.292Z,99.99
2018-08-20T05:19:20.203Z,99.99
2018-08-20T05:20:20.095Z,99.99
2018-08-20T05:21:20.007Z,99.99
2018-08-20T05:22:19.916Z,99.87
2018-08-20T05:23:19.849Z,99.20
2018-08-20T05:24:19.735Z,99.99
2018-08-20T05:25:19.649Z,99.99
2018-08-20T05:26:19.557Z,99.99
2018-08-20T05:27:19.466Z,99.99
2018-08-20T05:28:19.394Z,99.99
2018-08-20T05:29:19.296Z,99.99
2018-08-20T05:30:19.197Z,99.99
2018-08-20T05:31:19.108Z,99.99
2018-08-20T05:32:19.017Z,99.99
2018-08-20T05:33:18.944Z,99.99
2018-08-20T05:34:18.837Z,99.99
2018-08-20T05:35:18.748Z,99.99
2018-08-20T05:36:18.659Z,99.99
2018-08-20T05:37:18.570Z,99.99
2018-08-20T05:38:18.496Z,99.99
2018-08-20T05:39:18.396Z,99.99
2018-08-20T05:40:18.302Z,99.99
2018-08-20T05:41:18.213Z,99.99
2018-08-20T05:42:18.122Z,99.99
2018-08-20T05:43:18.051Z,99.40
2018-08-20T05:44:17.944Z,99.99
2018-08-20T05:45:17.856Z,99.99
2018-08-20T05:46:17.766Z,99.99
2018-08-20T05:47:17.678Z,99.99
2018-08-20T05:48:17.608Z,97.91
2018-08-20T05:49:17.498Z,97.91
2018-08-20T05:50:17.410Z,97.42
2018-08-20T05:51:17.319Z,99.59
2018-08-20T05:52:17.232Z,99.40
2018-08-20T05:53:17.159Z,96.61
2018-08-20T05:54:17.053Z,95.07
2018-08-20T05:55:16.965Z,94.11
2018-08-20T05:56:16.878Z,93.34
2018-08-20T05:57:16.788Z,95.40
2018-08-20T05:58:16.717Z,96.17
2018-08-20T05:59:16.674Z,93.38
2018-08-20T06:00:16.523Z,92.04
2018-08-20T06:01:16.434Z,91.51
2018-08-20T06:02:16.364Z,90.64
2018-08-20T06:03:16.274Z,89.29
2018-08-20T06:04:16.168Z,89.68
2018-08-20T06:05:16.082Z,89.29
2018-08-20T06:06:15.992Z,90.26
2018-08-20T06:07:15.903Z,90.97
2018-08-20T06:08:15.835Z,89.53
2018-08-20T06:09:15.728Z,89.34
2018-08-20T06:10:15.640Z,88.38
2018-08-20T06:11:15.552Z,87.32
2018-08-20T06:12:15.465Z,87.22
2018-08-20T06:13:15.393Z,87.22
2018-08-20T06:14:15.292Z,87.60
2018-08-20T06:15:15.219Z,86.74
2018-08-20T06:16:15.110Z,85.68
2018-08-20T06:17:15.028Z,85.39
2018-08-20T06:18:14.949Z,85.30
2018-08-20T06:19:14.848Z,86.07
2018-08-20T06:20:14.761Z,86.26
2018-08-20T06:21:14.672Z,88.23
2018-08-20T06:22:14.586Z,86.78
2018-08-20T06:23:14.498Z,85.53
2018-08-20T06:24:14.430Z,85.14
2018-08-20T06:25:14.324Z,85.43
2018-08-20T06:26:14.235Z,85.63
2018-08-20T06:27:14.147Z,85.24
2018-08-20T06:28:14.077Z,85.34
2018-08-20T06:29:13.974Z,85.24
2018-08-20T06:30:13.883Z,85.24
2018-08-20T06:31:13.798Z,86.30
2018-08-20T06:32:13.709Z,86.49
2018-08-20T06:33:13.624Z,86.69
2018-08-20T06:34:13.563Z,86.49
2018-08-20T06:35:13.446Z,85.72
2018-08-20T06:36:13.359Z,84.86
2018-08-20T06:37:13.380Z,85.43
2018-08-20T06:38:13.186Z,83.80
2018-08-20T06:39:13.119Z,83.89
2018-08-20T06:40:13.014Z,84.12
2018-08-20T06:41:12.922Z,84.03
2018-08-20T06:42:12.835Z,84.12
2018-08-20T06:43:12.749Z,84.32
2018-08-20T06:44:12.796Z,83.07
2018-08-20T06:45:12.573Z,82.43
2018-08-20T06:46:12.488Z,82.24
2018-08-20T06:47:12.397Z,82.09
2018-08-20T06:48:12.311Z,81.12
2018-08-20T06:49:12.241Z,79.81
2018-08-20T06:50:12.140Z,79.52
2018-08-20T06:51:12.053Z,78.89
2018-08-20T06:52:11.966Z,78.15
2018-08-20T06:53:11.880Z,77.28
2018-08-20T06:54:11.807Z,76.51
2018-08-20T06:55:11.708Z,76.12
2018-08-20T06:56:11.618Z,76.42
2018-08-20T06:57:11.532Z,75.93
2018-08-20T06:58:11.550Z,75.20
2018-08-20T06:59:11.377Z,75.45
2018-08-20T07:00:11.276Z,75.00
2018-08-20T07:01:11.194Z,74.13
2018-08-20T07:02:11.105Z,74.62
2018-08-20T07:03:11.019Z,74.23
2018-08-20T07:04:10.950Z,73.39
2018-08-20T07:05:10.954Z,73.20
2018-08-20T07:06:10.763Z,73.04
2018-08-20T07:07:10.682Z,72.08
2018-08-20T07:08:10.595Z,73.27
2018-08-20T07:09:10.528Z,71.72
2018-08-20T07:10:10.425Z,71.76
2018-08-20T07:11:10.341Z,71.28
2018-08-20T07:12:10.357Z,71.47
2018-08-20T07:13:10.175Z,70.60
2018-08-20T07:14:10.109Z,69.95
2018-08-20T07:15:10.007Z,69.57
2018-08-20T07:16:09.923Z,68.70
2018-08-20T07:17:09.841Z,69.41
2018-08-20T07:18:09.761Z,69.12
2018-08-20T07:19:09.793Z,69.21
2018-08-20T07:20:09.591Z,69.21
2018-08-20T07:21:09.511Z,68.66
2018-08-20T07:22:09.426Z,68.73
2018-08-20T07:23:09.344Z,68.82
2018-08-20T07:24:09.277Z,67.27
2018-08-20T07:25:09.180Z,67.18
2018-08-20T07:26:09.198Z,68.05
2018-08-20T07:27:09.019Z,68.15
2018-08-20T07:28:08.932Z,67.21
2018-08-20T07:29:08.867Z,67.99
2018-08-20T07:30:08.768Z,67.99
2018-08-20T07:31:08.684Z,68.21
2018-08-20T07:32:08.606Z,66.27
2018-08-20T07:33:08.630Z,66.08
2018-08-20T07:34:08.456Z,66.08
2018-08-20T07:35:08.363Z,66.82
2018-08-20T07:36:08.281Z,66.47
2018-08-20T07:37:08.197Z,66.17
2018-08-20T07:38:08.115Z,66.95
2018-08-20T07:39:08.074Z,68.02
2018-08-20T07:40:08.055Z,66.47
2018-08-20T07:41:07.870Z,66.47
2018-08-20T07:42:07.789Z,66.21
2018-08-20T07:43:07.709Z,66.11
2018-08-20T07:44:07.644Z,65.43
2018-08-20T07:45:07.551Z,65.63
2018-08-20T07:46:07.465Z,65.53
2018-08-20T07:47:07.487Z,66.63
2018-08-20T07:48:07.305Z,65.82
2018-08-20T07:49:07.242Z,65.85
2018-08-20T07:50:07.145Z,63.65
2018-08-20T07:51:07.062Z,62.48
2018-08-20T07:52:06.981Z,62.10
2018-08-20T07:53:06.902Z,61.54
2018-08-20T07:54:06.941Z,61.32
2018-08-20T07:55:06.740Z,62.13
2018-08-20T07:56:06.662Z,61.44
2018-08-20T07:57:06.581Z,61.83
2018-08-20T07:58:06.501Z,60.60
2018-08-20T07:59:06.437Z,60.31
2018-08-20T08:00:06.341Z,60.99
2018-08-20T08:01:06.356Z,60.79
2018-08-20T08:02:06.180Z,61.08
2018-08-20T08:03:06.099Z,60.99
2018-08-20T08:04:06.036Z,61.44
2018-08-20T08:05:05.942Z,60.41
2018-08-20T08:06:05.865Z,61.08
2018-08-20T08:07:05.779Z,62.64
2018-08-20T08:08:05.699Z,61.47
2018-08-20T08:09:05.638Z,59.92
2018-08-20T08:10:05.539Z,61.28
2018-08-20T08:11:05.468Z,60.41
2018-08-20T08:12:05.380Z,60.60
2018-08-20T08:13:05.308Z,61.08
2018-08-20T08:14:05.261Z,61.41
2018-08-20T08:15:05.159Z,60.36
2018-08-20T08:16:05.064Z,60.05
2018-08-20T08:17:04.983Z,59.20
2018-08-20T08:18:04.903Z,59.07
2018-08-20T08:19:04.825Z,59.78
2018-08-20T08:20:04.761Z,59.10
2018-08-20T08:21:04.671Z,58.74
2018-08-20T08:22:04.587Z,58.51
2018-08-20T08:23:04.507Z,58.32
2018-08-20T08:24:04.431Z,58.97
2018-08-20T08:25:04.369Z,58.91
2018-08-20T08:26:04.275Z,60.36
2018-08-20T08:27:04.192Z,60.63
2018-08-20T08:28:04.111Z,59.91
2018-08-20T08:29:04.033Z,59.03
2018-08-20T08:30:03.973Z,58.67
2018-08-20T08:31:03.875Z,58.84
2018-08-20T08:32:03.800Z,58.77
2018-08-20T08:33:03.718Z,59.03
2018-08-20T08:34:03.640Z,59.45
2018-08-20T08:35:03.582Z,60.33
2018-08-20T08:36:03.484Z,59.64
2018-08-20T08:37:03.402Z,59.64
2018-08-20T08:38:03.381Z,57.89
2018-08-20T08:39:03.247Z,58.58
2018-08-20T08:40:03.187Z,58.77
2018-08-20T08:41:03.089Z,59.35
2018-08-20T08:42:03.011Z,59.67
2018-08-20T08:43:02.940Z,58.12
2018-08-20T08:44:02.857Z,57.14
2018-08-20T08:45:02.791Z,58.22
2018-08-20T08:46:02.695Z,58.70
2018-08-20T08:47:02.616Z,57.34
2018-08-20T08:48:02.542Z,58.67
2018-08-20T08:49:02.461Z,59.87
2018-08-20T08:50:02.411Z,59.87
2018-08-20T08:51:02.305Z,59.12
2018-08-20T08:52:02.230Z,58.44
2018-08-20T08:53:02.148Z,58.53
2018-08-20T08:54:02.071Z,58.34
2018-08-20T08:55:02.039Z,58.89
2018-08-20T08:56:01.914Z,59.22
2018-08-20T08:57:01.843Z,58.89
2018-08-20T08:58:01.757Z,58.47
2018-08-20T08:59:01.681Z,58.27
2018-08-20T09:00:01.622Z,57.10
2018-08-20T09:01:01.527Z,57.43
2018-08-20T09:02:01.446Z,58.02
2018-08-20T09:03:01.406Z,58.38
2018-08-20T09:04:01.292Z,59.28
2018-08-20T09:05:01.230Z,58.34
2018-08-20T09:06:01.137Z,57.92
2018-08-20T09:07:01.056Z,58.60
2018-08-20T09:08:00.981Z,59.12
2018-08-20T09:09:00.903Z,59.12
2018-08-20T09:10:00.842Z,58.53
2018-08-20T09:11:00.749Z,57.10
2018-08-20T09:12:00.669Z,55.27
2018-08-20T09:13:00.592Z,55.37
2018-08-20T09:14:00.514Z,55.47
2018-08-20T09:15:00.466Z,55.76
2018-08-20T09:16:00.361Z,54.35
2018-08-20T09:17:00.283Z,53.17
2018-08-20T09:18:00.203Z,53.10
2018-08-20T09:19:00.125Z,53.69
2018-08-20T09:20:00.066Z,53.54
2018-08-20T09:20:59.971Z,54.71
2018-08-20T09:21:59.896Z,56.15
2018-08-20T09:22:59.816Z,55.10
2018-08-20T09:23:59.742Z,55.10
2018-08-20T09:24:59.677Z,54.98
2018-08-20T09:25:59.582Z,54.10
2018-08-20T09:26:59.508Z,54.98
2018-08-20T09:27:59.430Z,56.15
2018-08-20T09:28:59.358Z,57.00
2018-08-20T09:29:59.296Z,57.13
2018-08-20T09:30:59.202Z,57.62
2018-08-20T09:31:59.119Z,55.86
2018-08-20T09:32:59.044Z,55.00
2018-08-20T09:33:58.965Z,54.32
2018-08-20T09:34:58.908Z,53.74
2018-08-20T09:35:58.810Z,54.54
2018-08-20T09:36:58.732Z,53.96
2018-08-20T09:37:58.656Z,55.00
2018-08-20T09:38:58.579Z,55.79
2018-08-20T09:39:58.518Z,55.13
2018-08-20T09:40:58.425Z,54.67
2018-08-20T09:41:58.348Z,53.66
2018-08-20T09:42:58.272Z,53.17
2018-08-20T09:43:58.194Z,53.59
2018-08-20T09:44:58.131Z,53.59
2018-08-20T09:45:58.040Z,53.78
2018-08-20T09:46:57.961Z,54.32
2018-08-20T09:47:57.888Z,52.95
2018-08-20T09:48:57.809Z,52.56
2018-08-20T09:49:57.749Z,52.49
2018-08-20T09:50:57.657Z,52.88
2018-08-20T09:51:57.579Z,52.69
2018-08-20T09:52:57.811Z,53.17
2018-08-20T09:53:57.425Z,55.30
2018-08-20T09:54:57.365Z,53.08
2018-08-20T09:55:57.271Z,52.81
2018-08-20T09:56:57.196Z,52.71
2018-08-20T09:57:57.116Z,51.76
2018-08-20T09:58:57.060Z,52.42
2018-08-20T09:59:57.085Z,52.42
2018-08-20T10:00:56.888Z,52.51
2018-08-20T10:01:56.810Z,52.91
2018-08-20T10:02:56.750Z,52.69
2018-08-20T10:03:56.657Z,52.76
2018-08-20T10:04:56.584Z,53.27
2018-08-20T10:05:56.519Z,53.27
2018-08-20T10:06:56.532Z,52.86
2018-08-20T10:07:56.353Z,53.25
2018-08-20T10:08:56.278Z,53.76
2018-08-20T10:09:56.199Z,53.56
2018-08-20T10:10:56.136Z,52.49
2018-08-20T10:11:56.045Z,53.44
2018-08-20T10:12:55.969Z,53.15
2018-08-20T10:13:55.993Z,55.30
2018-08-20T10:14:55.840Z,52.64
2018-08-20T10:15:55.754Z,53.29
2018-08-20T10:16:55.662Z,54.49
2018-08-20T10:17:55.590Z,55.08
2018-08-20T10:18:55.509Z,53.05
2018-08-20T10:19:55.436Z,54.08
2018-08-20T10:20:55.478Z,53.98
2018-08-20T10:21:55.280Z,54.28
2018-08-20T10:22:55.200Z,54.57
2018-08-20T10:23:55.125Z,53.30
2018-08-20T10:24:55.049Z,52.88
2018-08-20T10:25:54.984Z,52.61
2018-08-20T10:26:54.894Z,53.30
2018-08-20T10:27:54.946Z,52.73
2018-08-20T10:28:54.740Z,52.34
2018-08-20T10:29:54.663Z,52.44
2018-08-20T10:30:54.603Z,51.37
2018-08-20T10:31:54.526Z,52.44
2018-08-20T10:32:54.434Z,53.33
2018-08-20T10:33:54.356Z,52.73
2018-08-20T10:34:54.395Z,52.61
2018-08-20T10:35:54.219Z,52.51
2018-08-20T10:36:54.128Z,53.13
2018-08-20T10:37:54.221Z,52.44
2018-08-20T10:38:53.971Z,52.71
2018-08-20T10:39:53.897Z,52.51
2018-08-20T10:40:53.836Z,53.30
2018-08-20T10:41:53.847Z,52.73
2018-08-20T10:42:53.665Z,51.86
2018-08-20T10:43:53.591Z,52.42
2018-08-20T10:44:53.515Z,52.44
2018-08-20T10:45:53.453Z,51.29
2018-08-20T10:46:53.360Z,50.61
2018-08-20T10:47:53.285Z,50.68
2018-08-20T10:48:53.207Z,50.51
2018-08-20T10:49:53.139Z,50.02
2018-08-20T10:50:53.072Z,51.49
2018-08-20T10:51:52.983Z,50.24
2018-08-20T10:52:52.901Z,49.82
2018-08-20T10:53:52.829Z,49.65
2018-08-20T10:54:52.748Z,50.04
2018-08-20T10:55:52.788Z,49.11
2018-08-20T10:56:52.596Z,48.87
2018-08-20T10:57:52.522Z,48.01
2018-08-20T10:58:52.443Z,48.33
2018-08-20T10:59:52.367Z,47.13
2018-08-20T11:00:52.307Z,48.01
2018-08-20T11:01:52.222Z,48.92
2018-08-20T11:02:52.243Z,48.30
2018-08-20T11:03:52.063Z,48.82
2018-08-20T11:04:51.990Z,48.01
2018-08-20T11:05:51.925Z,47.06
2018-08-20T11:06:51.834Z,48.48
2018-08-20T11:07:51.760Z,49.55
2018-08-20T11:08:51.681Z,48.97
2018-08-20T11:09:51.602Z,48.30
2018-08-20T11:10:51.628Z,49.46
2018-08-20T11:11:51.452Z,47.23
2018-08-20T11:12:51.377Z,48.30
2018-08-20T11:13:51.302Z,48.30
2018-08-20T11:14:51.225Z,48.28
2018-08-20T11:15:51.166Z,49.02
2018-08-20T11:16:51.074Z,47.18
2018-08-20T11:17:50.996Z,49.04
2018-08-20T11:18:50.933Z,49.26
2018-08-20T11:19:50.846Z,48.87
2018-08-20T11:20:50.791Z,48.87
2018-08-20T11:21:50.791Z,47.62
2018-08-20T11:22:50.657Z,48.80
2018-08-20T11:23:50.545Z,48.23
2018-08-20T11:24:50.465Z,48.82
2018-08-20T11:25:50.406Z,48.52
2018-08-20T11:26:50.324Z,48.25
2018-08-20T11:27:50.236Z,48.94
2018-08-20T11:28:50.162Z,46.10
2018-08-20T11:29:50.088Z,46.10
2018-08-20T11:30:50.026Z,47.03
2018-08-20T11:31:49.941Z,49.14
2018-08-20T11:32:49.858Z,50.44
2018-08-20T11:33:49.780Z,51.00
2018-08-20T11:34:49.704Z,51.98
2018-08-20T11:35:49.740Z,52.59
2018-08-20T11:36:49.553Z,50.17
2018-08-20T11:37:49.478Z,50.12
2018-08-20T11:38:49.403Z,50.81
2018-08-20T11:39:49.324Z,49.36
2018-08-20T11:40:49.307Z,48.87
2018-08-20T11:41:49.173Z,48.28
2018-08-20T11:42:49.096Z,49.14
2018-08-20T11:43:49.019Z,49.31
2018-08-20T11:44:48.942Z,49.75
2018-08-20T11:45:48.881Z,50.34
2018-08-20T11:46:48.793Z,50.27
2018-08-20T11:47:48.715Z,51.15
2018-08-20T11:48:48.639Z,52.54
2018-08-20T11:49:48.559Z,51.42
2018-08-20T11:50:48.484Z,51.44
2018-08-20T11:51:48.422Z,51.15
2018-08-20T11:52:48.331Z,50.59
2018-08-20T11:53:48.251Z,50.71
2018-08-20T11:54:48.175Z,48.30
2018-08-20T11:55:48.115Z,48.30
2018-08-20T11:56:48.022Z,48.33
2018-08-20T11:57:47.942Z,50.56
2018-08-20T11:58:47.884Z,49.19
2018-08-20T11:59:47.796Z,48.97
2018-08-20T12:00:47.715Z,48.70
2018-08-20T12:01:47.656Z,48.99
2018-08-20T12:02:47.669Z,48.80
2018-08-20T12:03:47.482Z,49.21
2018-08-20T12:04:47.405Z,49.43
2018-08-20T12:05:47.335Z,48.01
2018-08-20T12:06:47.300Z,47.79
2018-08-20T12:07:47.229Z,48.38
2018-08-20T12:08:47.100Z,48.68
2018-08-20T12:09:47.023Z,48.87
2018-08-20T12:10:46.946Z,49.26
2018-08-20T12:11:46.888Z,48.80
2018-08-20T12:12:46.793Z,48.68
2018-08-20T12:13:46.714Z,48.72
2018-08-20T12:14:46.639Z,47.06
2018-08-20T12:15:46.582Z,47.16
2018-08-20T12:16:46.502Z,48.82
2018-08-20T12:17:46.410Z,49.29
2018-08-20T12:18:46.332Z,47.33
2018-08-20T12:19:46.257Z,48.60
2018-08-20T12:20:46.182Z,48.33
2018-08-20T12:21:46.122Z,48.23
2018-08-20T12:22:46.027Z,48.43
2018-08-20T12:23:45.951Z,48.23
2018-08-20T12:24:45.879Z,49.04
2018-08-20T12:25:45.798Z,48.03
2018-08-20T12:26:45.733Z,47.52
2018-08-20T12:27:45.643Z,47.42
2018-08-20T12:28:45.567Z,48.80
2018-08-20T12:29:45.595Z,48.99
2018-08-20T12:30:45.450Z,50.15
2018-08-20T12:31:45.355Z,49.07
2018-08-20T12:32:45.268Z,49.36
2018-08-20T12:33:45.188Z,50.66
2018-08-20T12:34:45.118Z,48.77
2018-08-20T12:35:45.035Z,49.51
2018-08-20T12:36:44.975Z,47.55
2018-08-20T12:37:44.880Z,46.98
2018-08-20T12:38:44.806Z,47.10
2018-08-20T12:39:44.737Z,47.03
2018-08-20T12:40:44.701Z,48.11
2018-08-20T12:41:44.595Z,47.59
2018-08-20T12:42:44.502Z,48.67
2018-08-20T12:43:44.425Z,48.85
2018-08-20T12:44:44.348Z,50.78
2018-08-20T12:45:44.273Z,48.90
2018-08-20T12:46:44.209Z,49.68
2018-08-20T12:47:44.120Z,49.16
2018-08-20T12:48:44.045Z,50.73
2018-08-20T12:49:43.971Z,50.44
2018-08-20T12:50:43.895Z,51.25
2018-08-20T12:51:43.833Z,52.17